Time;durP1;ratioP1;P1;durP2;ratioP2;P2;SDS_P1;SDS_P2;PMS_P1;PMS_P2;Temp;Humidity;BMP_temperature;BMP_pressure;BME280_temperature;BME280_humidity;BME280_pressure;Samples;Min_cycle;Max_cycle;Signal;HPM_P1;HPM_P2
2023/03/11 00:00:59;;;;;;;1.20;0.70;;;5.40;99.90;;;;;;10439009;28;20037;-63
2023/03/11 00:06:01;;;;;;;1.27;0.93;;;5.40;99.90;;;;;;10434687;28;20029;-63
2023/03/11 00:11:02;;;;;;;1.33;0.77;;;5.40;99.90;;;;;;10433851;28;20017;-62
2023/03/11 00:16:03;;;;;;;1.77;0.82;;;5.40;99.90;;;;;;10437414;28;20407;-63
2023/03/11 00:21:03;;;;;;;1.83;0.57;;;5.40;99.90;;;;;;10428739;28;20033;-63
2023/03/11 00:26:04;;;;;;;1.60;0.68;;;5.30;99.90;;;;;;10427150;28;20070;-63
2023/03/11 00:31:05;;;;;;;0.73;0.70;;;5.40;99.90;;;;;;10433556;28;20457;-63
2023/03/11 00:36:06;;;;;;;1.55;0.60;;;5.40;99.90;;;;;;10427840;28;20104;-63
2023/03/11 00:41:06;;;;;;;0.85;0.40;;;5.40;99.90;;;;;;10429075;28;20072;-63
2023/03/11 00:46:08;;;;;;;0.90;0.60;;;5.30;99.90;;;;;;10432447;28;20060;-62
2023/03/11 00:51:14;;;;;;;1.05;0.60;;;5.30;99.90;;;;;;10436133;28;20447;-63
2023/03/11 00:56:15;;;;;;;1.42;0.60;;;5.30;99.90;;;;;;10426625;28;20026;-63
2023/03/11 01:01:17;;;;;;;1.33;0.70;;;5.30;99.90;;;;;;10427371;28;20078;-63
2023/03/11 01:06:18;;;;;;;1.25;0.70;;;5.40;99.90;;;;;;10433058;28;20024;-63
2023/03/11 01:11:19;;;;;;;1.75;0.50;;;5.30;99.90;;;;;;10431048;28;20036;-63
2023/03/11 01:16:20;;;;;;;1.13;0.57;;;5.30;99.90;;;;;;10429593;28;20025;-64
2023/03/11 01:21:20;;;;;;;1.45;0.60;;;5.30;99.90;;;;;;10430652;28;20025;-63
2023/03/11 01:26:21;;;;;;;0.88;0.57;;;5.30;99.90;;;;;;10425812;28;20025;-63
2023/03/11 01:31:21;;;;;;;2.15;0.80;;;5.30;99.90;;;;;;10425575;28;20028;-63
2023/03/11 01:36:22;;;;;;;1.85;0.73;;;5.30;99.90;;;;;;10430061;28;20431;-62
2023/03/11 01:41:23;;;;;;;1.33;0.70;;;5.20;99.90;;;;;;10432222;28;20028;-62
2023/03/11 01:46:26;;;;;;;0.73;0.43;;;5.20;99.90;;;;;;10429000;28;20025;-62
2023/03/11 01:51:41;;;;;;;1.73;0.70;;;5.20;99.90;;;;;;10424813;28;20206;-62
2023/03/11 01:56:43;;;;;;;1.73;0.70;;;5.20;99.90;;;;;;10433401;28;20021;-64
2023/03/11 02:02:04;;;;;;;1.40;0.70;;;5.20;99.90;;;;;;10429844;28;20028;-61
2023/03/11 02:07:07;;;;;;;0.90;0.50;;;5.20;99.90;;;;;;10430413;28;20052;-63
2023/03/11 02:12:12;;;;;;;0.70;0.40;;;5.20;99.90;;;;;;10430273;28;20020;-63
2023/03/11 02:17:12;;;;;;;1.40;0.65;;;5.20;99.90;;;;;;10429965;28;20021;-64
2023/03/11 02:22:13;;;;;;;0.52;0.40;;;5.20;99.90;;;;;;10425840;28;20457;-61
2023/03/11 02:27:16;;;;;;;0.60;0.40;;;5.20;99.90;;;;;;10428804;28;20025;-63
2023/03/11 02:32:18;;;;;;;2.03;0.50;;;5.60;99.90;;;;;;10431178;28;20018;-62
2023/03/11 02:37:18;;;;;;;1.52;0.50;;;5.20;99.90;;;;;;10427423;28;20021;-62
2023/03/11 02:42:31;;;;;;;0.80;0.47;;;5.20;99.90;;;;;;10431589;28;20037;-63
2023/03/11 02:47:33;;;;;;;0.40;0.25;;;5.20;99.90;;;;;;10434861;28;20029;-62
2023/03/11 02:52:35;;;;;;;1.15;0.40;;;5.20;99.90;;;;;;10443659;28;20032;-62
2023/03/11 02:57:36;;;;;;;1.23;0.45;;;5.20;99.90;;;;;;10434260;28;20026;-63
2023/03/11 03:02:36;;;;;;;1.10;0.70;;;5.20;99.90;;;;;;10434614;28;20040;-63
2023/03/11 03:07:37;;;;;;;0.57;0.30;;;5.20;99.90;;;;;;10432178;28;20550;-63
2023/03/11 03:12:38;;;;;;;1.20;0.50;;;5.10;99.80;;;;;;10436105;28;20029;-63
2023/03/11 03:17:38;;;;;;;1.50;0.40;;;5.10;99.80;;;;;;10435012;28;20033;-63
2023/03/11 03:22:40;;;;;;;0.85;0.47;;;5.10;99.80;;;;;;10434685;28;20029;-63
2023/03/11 03:27:41;;;;;;;1.05;0.40;;;5.10;99.80;;;;;;10432877;28;20024;-62
2023/03/11 03:32:42;;;;;;;0.40;0.30;;;5.10;99.90;;;;;;10435250;28;20428;-63
2023/03/11 03:37:42;;;;;;;2.05;0.40;;;5.10;99.90;;;;;;10431684;28;20025;-63
2023/03/11 03:42:43;;;;;;;0.80;0.50;;;5.10;99.90;;;;;;10434761;28;20077;-62
2023/03/11 03:47:44;;;;;;;0.70;0.40;;;5.00;99.90;;;;;;10434818;28;20183;-63
2023/03/11 03:52:44;;;;;;;0.60;0.50;;;5.00;99.90;;;;;;10431311;28;20024;-63
2023/03/11 03:57:45;;;;;;;0.80;0.40;;;5.00;99.80;;;;;;10435446;28;20025;-63
2023/03/11 04:02:45;;;;;;;0.73;0.35;;;5.00;99.90;;;;;;10434583;28;20388;-63
2023/03/11 04:07:46;;;;;;;0.88;0.38;;;5.00;99.80;;;;;;10431955;28;20024;-62
2023/03/11 04:12:47;;;;;;;0.73;0.50;;;5.00;99.90;;;;;;10433923;28;20017;-63
2023/03/11 04:17:47;;;;;;;1.27;0.30;;;5.00;99.80;;;;;;10429415;28;20017;-63
2023/03/11 04:22:48;;;;;;;0.40;0.22;;;5.00;99.80;;;;;;10437964;28;20210;-63
2023/03/11 04:27:51;;;;;;;0.63;0.50;;;5.00;99.80;;;;;;10432510;28;20444;-63
2023/03/11 04:32:51;;;;;;;0.88;0.50;;;5.00;99.80;;;;;;10431773;28;20021;-62
2023/03/11 04:37:52;;;;;;;1.75;0.50;;;5.00;99.80;;;;;;10432701;28;20233;-63
2023/03/11 04:42:53;;;;;;;1.55;0.50;;;4.90;99.80;;;;;;10428804;28;20696;-62
2023/03/11 04:47:53;;;;;;;0.85;0.60;;;4.90;99.80;;;;;;10430218;28;20511;-62
2023/03/11 04:52:55;;;;;;;0.57;0.28;;;4.90;99.80;;;;;;10422278;28;20116;-64
2023/03/11 04:57:55;;;;;;;0.63;0.40;;;4.90;99.80;;;;;;10433359;28;20021;-62
2023/03/11 05:02:56;;;;;;;0.82;0.45;;;4.90;99.80;;;;;;10435731;28;20017;-63
2023/03/11 05:07:57;;;;;;;2.25;0.40;;;4.90;99.80;;;;;;10425872;28;20033;-61
2023/03/11 05:12:57;;;;;;;0.70;0.40;;;4.90;99.80;;;;;;10431996;28;20155;-62
2023/03/11 05:17:58;;;;;;;0.57;0.45;;;4.90;99.80;;;;;;10432553;28;20021;-63
2023/03/11 05:22:59;;;;;;;0.40;0.30;;;4.80;99.80;;;;;;10435600;28;20032;-62
2023/03/11 05:27:59;;;;;;;0.68;0.30;;;4.80;99.70;;;;;;10426951;28;20045;-63
2023/03/11 05:33:00;;;;;;;0.38;0.25;;;4.90;99.80;;;;;;10431036;28;20451;-62
2023/03/11 05:38:00;;;;;;;0.70;0.38;;;4.80;99.80;;;;;;10425313;28;20034;-63
2023/03/11 05:43:01;;;;;;;0.93;0.40;;;4.80;99.80;;;;;;10431059;28;20025;-63
2023/03/11 05:48:02;;;;;;;0.40;0.28;;;4.80;99.80;;;;;;10428100;28;20040;-63
2023/03/11 05:53:02;;;;;;;1.55;0.40;;;4.80;99.80;;;;;;10431602;28;20455;-63
2023/03/11 05:58:03;;;;;;;1.15;0.38;;;4.80;99.80;;;;;;10428364;28;20029;-61
2023/03/11 06:03:03;;;;;;;2.00;0.50;;;4.80;99.70;;;;;;10436591;28;20044;-63
2023/03/11 06:08:04;;;;;;;0.70;0.40;;;4.70;99.70;;;;;;10416900;28;20041;-63
2023/03/11 06:13:04;;;;;;;0.60;0.38;;;4.70;99.70;;;;;;10433049;28;20028;-62
2023/03/11 06:18:05;;;;;;;1.10;0.32;;;4.70;99.70;;;;;;10424694;28;20508;-63
2023/03/11 06:23:06;;;;;;;0.40;0.30;;;4.70;99.70;;;;;;10427471;28;20504;-63
2023/03/11 06:28:11;;;;;;;0.90;0.40;;;4.70;99.70;;;;;;10428473;28;20542;-63
2023/03/11 06:33:13;;;;;;;0.70;0.30;;;4.70;99.60;;;;;;10419168;28;20077;-61
2023/03/11 06:38:14;;;;;;;0.98;0.20;;;4.70;99.60;;;;;;10435770;28;20029;-62
2023/03/11 06:43:15;;;;;;;1.77;0.50;;;4.70;99.60;;;;;;10425382;28;20481;-63
2023/03/11 06:48:15;;;;;;;2.58;0.40;;;4.70;99.60;;;;;;10429698;28;20744;-63
2023/03/11 06:53:24;;;;;;;0.70;0.30;;;4.70;99.60;;;;;;10429174;28;20017;-63
2023/03/11 06:58:26;;;;;;;0.20;0.20;;;4.70;99.60;;;;;;10435033;28;20030;-63
2023/03/11 07:03:27;;;;;;;2.42;0.40;;;4.70;99.50;;;;;;10419940;28;20021;-63
2023/03/11 07:08:28;;;;;;;0.50;0.30;;;4.70;99.50;;;;;;10419170;28;20025;-63
2023/03/11 07:13:29;;;;;;;0.43;0.30;;;4.70;99.50;;;;;;10427656;28;20115;-63
2023/03/11 07:18:29;;;;;;;0.47;0.30;;;4.70;99.50;;;;;;10428083;28;20021;-63
2023/03/11 07:23:30;;;;;;;1.70;0.40;;;4.70;99.40;;;;;;10421616;28;20033;-61
2023/03/11 07:28:31;;;;;;;0.50;0.28;;;4.80;99.40;;;;;;10422379;28;20033;-63
2023/03/11 07:33:32;;;;;;;1.55;0.40;;;4.80;99.40;;;;;;10433054;28;20517;-62
2023/03/11 07:38:32;;;;;;;0.80;0.43;;;4.80;99.40;;;;;;10434495;28;20030;-64
2023/03/11 07:43:33;;;;;;;0.65;0.30;;;4.80;99.40;;;;;;10435023;28;20029;-62
2023/03/11 07:48:35;;;;;;;2.30;0.47;;;4.90;99.30;;;;;;10434096;28;20029;-61
2023/03/11 07:53:35;;;;;;;1.13;0.40;;;5.00;99.20;;;;;;10436144;28;20335;-63
2023/03/11 07:58:37;;;;;;;0.85;0.40;;;5.10;99.10;;;;;;10435150;28;20620;-63
2023/03/11 08:03:38;;;;;;;1.95;0.57;;;5.20;99.00;;;;;;10434345;28;20108;-63
2023/03/11 08:08:39;;;;;;;1.55;0.35;;;5.40;98.90;;;;;;10432425;28;20037;-63
2023/03/11 08:13:40;;;;;;;0.82;0.40;;;5.50;98.80;;;;;;10441453;28;20028;-62
2023/03/11 08:18:41;;;;;;;1.85;0.40;;;5.60;98.70;;;;;;10433109;28;20219;-63
2023/03/11 08:23:42;;;;;;;0.52;0.52;;;5.70;98.60;;;;;;10431383;28;20535;-62
2023/03/11 08:28:44;;;;;;;1.13;0.30;;;5.80;98.60;;;;;;10431703;28;20056;-63
2023/03/11 08:33:55;;;;;;;0.50;0.40;;;5.90;98.60;;;;;;10432605;28;20299;-63
2023/03/11 08:38:56;;;;;;;1.20;0.57;;;5.90;98.60;;;;;;10440251;28;20024;-63
2023/03/11 08:43:57;;;;;;;0.60;0.50;;;5.90;98.50;;;;;;10435461;28;20424;-64
2023/03/11 08:48:59;;;;;;;1.63;0.60;;;6.00;98.50;;;;;;10432958;28;20228;-64
2023/03/11 08:54:01;;;;;;;3.60;0.43;;;6.10;98.50;;;;;;10434969;28;20084;-64
2023/03/11 08:59:02;;;;;;;1.10;0.50;;;6.10;98.50;;;;;;10429683;28;20017;-62
2023/03/11 09:04:03;;;;;;;0.88;0.45;;;6.10;98.50;;;;;;10429232;28;20080;-64
2023/03/11 09:09:03;;;;;;;2.92;0.68;;;6.20;98.50;;;;;;10432047;28;20028;-63
2023/03/11 09:14:04;;;;;;;1.20;0.65;;;6.20;98.50;;;;;;10435771;28;20017;-62
2023/03/11 09:19:06;;;;;;;1.98;0.60;;;6.20;98.50;;;;;;10428979;28;20033;-63
2023/03/11 09:24:06;;;;;;;0.98;0.60;;;6.20;98.50;;;;;;10431380;28;20032;-64
2023/03/11 09:29:07;;;;;;;2.50;1.23;;;6.40;98.50;;;;;;10432903;28;20029;-64
2023/03/11 09:34:09;;;;;;;1.92;0.77;;;6.30;98.50;;;;;;10432081;28;20116;-62
2023/03/11 09:39:10;;;;;;;4.85;0.75;;;6.30;98.50;;;;;;10428234;28;20033;-63
2023/03/11 09:44:35;;;;;;;1.00;0.60;;;6.30;98.50;;;;;;10424171;28;20033;-63
2023/03/11 09:49:58;;;;;;;1.33;0.50;;;6.40;98.50;;;;;;10433541;28;20056;-64
2023/03/11 09:55:02;;;;;;;1.23;0.55;;;6.40;98.40;;;;;;10430909;28;20025;-63
2023/03/11 10:00:05;;;;;;;2.13;0.70;;;6.50;98.40;;;;;;10433588;28;20393;-64
2023/03/11 10:05:12;;;;;;;1.52;0.50;;;6.50;98.40;;;;;;10427096;28;20508;-62
2023/03/11 10:10:14;;;;;;;0.52;0.38;;;6.60;98.40;;;;;;10429322;28;20424;-64
2023/03/11 10:15:37;;;;;;;1.25;0.50;;;6.60;98.40;;;;;;10428565;28;20021;-64
2023/03/11 10:21:05;;;;;;;1.98;0.70;;;6.70;98.40;;;;;;10433340;28;20439;-64
2023/03/11 10:26:08;;;;;;;1.07;0.60;;;6.80;98.40;;;;;;10426610;28;20485;-63
2023/03/11 10:31:17;;;;;;;1.50;0.47;;;6.80;98.40;;;;;;10426239;28;20052;-63
2023/03/11 10:36:23;;;;;;;3.45;0.77;;;6.90;98.40;;;;;;10423366;28;20032;-63
2023/03/11 10:41:48;;;;;;;1.20;0.60;;;6.90;98.30;;;;;;10422238;28;20029;-63
2023/03/11 10:46:48;;;;;;;1.33;0.60;;;7.00;98.30;;;;;;10409299;28;20036;-62
2023/03/11 10:51:52;;;;;;;1.67;0.70;;;7.10;98.40;;;;;;10401834;28;20130;-64
2023/03/11 10:57:01;;;;;;;5.88;1.00;;;7.20;98.30;;;;;;10398573;28;20524;-62
2023/03/11 11:02:18;;;;;;;3.33;0.90;;;7.20;98.30;;;;;;10408721;28;20559;-64
2023/03/11 11:07:20;;;;;;;1.60;0.88;;;7.50;98.80;;;;;;10409758;28;20131;-63
2023/03/11 11:12:21;;;;;;;2.63;1.05;;;7.60;98.30;;;;;;10417367;28;20029;-63
2023/03/11 11:17:32;;;;;;;3.88;1.00;;;7.60;98.20;;;;;;10429098;28;20079;-64
2023/03/11 11:22:34;;;;;;;3.75;1.10;;;7.60;98.20;;;;;;10436615;28;20036;-63
2023/03/11 11:27:34;;;;;;;3.13;1.17;;;7.70;98.20;;;;;;10432290;28;20033;-63
2023/03/11 11:32:36;;;;;;;3.17;1.25;;;7.70;98.20;;;;;;10408577;28;20045;-64
2023/03/11 11:37:40;;;;;;;2.78;1.02;;;7.80;98.30;;;;;;10402571;28;21540;-65
2023/03/11 11:43:24;;;;;;;3.00;0.98;;;7.80;98.20;;;;;;10406849;28;20056;-63
2023/03/11 11:49:06;;;;;;;2.30;0.90;;;7.80;98.20;;;;;;10406828;28;20060;-63
2023/03/11 11:54:29;;;;;;;3.15;0.65;;;7.80;98.20;;;;;;10419913;28;20041;-64
2023/03/11 11:59:29;;;;;;;2.95;0.95;;;7.90;98.20;;;;;;10434571;28;20472;-65
2023/03/11 12:04:52;;;;;;;3.08;0.88;;;8.00;98.20;;;;;;10406647;28;20036;-63
2023/03/11 12:09:58;;;;;;;5.57;1.08;;;8.00;98.20;;;;;;10425859;28;20048;-64
2023/03/11 12:15:20;;;;;;;3.50;1.17;;;8.10;98.20;;;;;;10420085;28;20548;-65
2023/03/11 12:20:33;;;;;;;3.83;1.35;;;8.10;98.10;;;;;;10418797;28;20586;-64
2023/03/11 12:25:45;;;;;;;1.60;0.95;;;8.20;98.20;;;;;;10434887;28;20103;-64
2023/03/11 12:30:58;;;;;;;3.67;0.98;;;8.20;98.30;;;;;;10403432;28;20052;-64
2023/03/11 12:36:00;;;;;;;1.33;0.55;;;8.20;98.30;;;;;;10406209;28;20048;-64
2023/03/11 12:41:07;;;;;;;2.20;1.05;;;8.20;98.30;;;;;;10420607;28;20021;-64
2023/03/11 12:46:13;;;;;;;2.88;0.90;;;8.20;98.30;;;;;;10402420;28;20062;-64
2023/03/11 12:51:26;;;;;;;3.65;0.90;;;8.30;98.30;;;;;;10402870;28;20580;-63
2023/03/11 12:56:39;;;;;;;3.83;0.73;;;8.30;98.20;;;;;;10411219;28;20478;-63
2023/03/11 13:02:17;;;;;;;1.63;0.70;;;8.30;98.30;;;;;;10426849;28;20231;-64
2023/03/11 13:07:35;;;;;;;2.17;0.55;;;8.30;98.30;;;;;;10411601;28;20079;-64
2023/03/11 13:12:48;;;;;;;3.08;0.93;;;8.30;98.30;;;;;;10424230;28;20033;-64
2023/03/11 13:18:04;;;;;;;2.55;0.50;;;8.30;98.30;;;;;;10417298;28;20060;-63
2023/03/11 13:23:13;;;;;;;0.73;0.50;;;8.30;98.30;;;;;;10430510;28;20056;-64
2023/03/11 13:28:56;;;;;;;0.75;0.60;;;8.30;98.30;;;;;;10430117;28;20025;-64
2023/03/11 13:34:05;;;;;;;2.05;0.60;;;8.40;98.40;;;;;;10417766;28;20113;-63
2023/03/11 13:39:47;;;;;;;2.53;0.80;;;8.40;98.40;;;;;;10437580;28;20428;-64
2023/03/11 13:44:48;;;;;;;1.10;0.60;;;8.40;98.50;;;;;;10428613;28;20029;-62
2023/03/11 13:49:54;;;;;;;1.30;0.73;;;8.40;98.50;;;;;;10431657;28;20299;-63
2023/03/11 13:55:05;;;;;;;1.05;0.50;;;8.40;98.60;;;;;;10429774;28;20047;-62
2023/03/11 14:00:15;;;;;;;1.58;0.50;;;8.50;98.70;;;;;;10437134;28;20029;-63
2023/03/11 14:05:32;;;;;;;2.22;0.90;;;8.50;98.70;;;;;;10431793;28;20013;-63
2023/03/11 14:10:32;;;;;;;2.28;0.55;;;8.50;98.70;;;;;;10429835;28;20041;-64
2023/03/11 14:15:44;;;;;;;4.57;0.73;;;8.60;98.80;;;;;;10423708;28;20031;-64
2023/03/11 14:20:47;;;;;;;1.88;0.65;;;8.60;98.80;;;;;;10426840;28;20024;-62
2023/03/11 14:25:47;;;;;;;1.88;0.50;;;8.60;98.90;;;;;;10432897;28;20318;-63
2023/03/11 14:30:56;;;;;;;0.68;0.47;;;8.70;98.90;;;;;;10430730;28;20038;-63
2023/03/11 14:36:00;;;;;;;1.38;0.50;;;8.70;98.90;;;;;;10431196;28;20025;-63
2023/03/11 14:41:05;;;;;;;1.30;0.73;;;8.80;98.90;;;;;;10429850;28;20029;-62
2023/03/11 14:46:06;;;;;;;1.67;0.70;;;9.00;98.80;;;;;;10449271;28;20075;-63
2023/03/11 14:51:17;;;;;;;1.48;0.50;;;9.10;98.80;;;;;;10435583;28;20140;-62
2023/03/11 14:56:20;;;;;;;4.82;1.15;;;9.20;98.70;;;;;;10442225;28;20485;-62
2023/03/11 15:01:27;;;;;;;1.95;0.77;;;9.30;98.50;;;;;;10441268;28;20028;-63
2023/03/11 15:06:29;;;;;;;1.35;0.70;;;9.40;98.40;;;;;;10443587;28;20044;-63
2023/03/11 15:11:31;;;;;;;1.65;0.60;;;9.60;97.90;;;;;;10437355;28;20114;-63
2023/03/11 15:16:35;;;;;;;0.95;0.60;;;9.70;97.90;;;;;;10443707;28;20044;-63
2023/03/11 15:21:35;;;;;;;2.38;0.50;;;9.80;98.00;;;;;;10437777;28;20037;-63
2023/03/11 15:26:38;;;;;;;1.33;0.80;;;9.80;98.00;;;;;;10441496;28;20029;-64
2023/03/11 15:31:41;;;;;;;1.17;0.70;;;9.80;98.20;;;;;;10445288;28;20026;-64
2023/03/11 15:36:48;;;;;;;1.73;0.77;;;9.70;98.30;;;;;;10441082;28;20032;-64
2023/03/11 15:42:02;;;;;;;1.42;0.63;;;9.60;98.40;;;;;;10444596;28;20136;-64
2023/03/11 15:47:03;;;;;;;1.13;0.65;;;9.60;98.60;;;;;;10441090;28;20025;-63
2023/03/11 15:52:04;;;;;;;3.10;0.73;;;9.50;98.70;;;;;;10440973;28;20017;-63
2023/03/11 15:57:12;;;;;;;2.30;0.73;;;9.40;98.80;;;;;;10434963;28;20036;-64
2023/03/11 16:02:24;;;;;;;1.35;0.88;;;9.40;99.00;;;;;;10433359;28;20037;-63
2023/03/11 16:07:25;;;;;;;2.85;0.50;;;9.40;99.20;;;;;;10439001;28;20441;-64
2023/03/11 16:12:25;;;;;;;1.58;0.60;;;9.30;99.30;;;;;;10430762;28;20102;-65
2023/03/11 16:17:26;;;;;;;6.03;1.52;;;9.40;99.30;;;;;;10432346;28;20056;-64
2023/03/11 16:22:35;;;;;;;3.53;1.48;;;9.00;98.10;;;;;;10428896;28;20021;-68
2023/03/11 16:27:35;;;;;;;;;;;8.70;96.70;;;;;;10436505;28;20029;-64
2023/03/11 16:32:36;;;;;;;5.82;1.75;;;8.50;93.40;;;;;;10437504;28;19908;-63
2023/03/11 16:37:37;;;;;;;3.72;1.38;;;8.60;97.60;;;;;;10426329;28;20427;-62
2023/03/11 16:42:38;;;;;;;4.97;1.60;;;8.60;97.20;;;;;;10430180;28;20030;-63
2023/03/11 16:47:39;;;;;;;4.20;1.02;;;8.70;97.40;;;;;;10434367;28;20021;-62
2023/03/11 16:52:39;;;;;;;2.88;0.90;;;8.80;97.80;;;;;;10430046;28;20507;-65
2023/03/11 16:57:40;;;;;;;4.53;0.88;;;8.80;98.00;;;;;;10439717;28;20409;-64
2023/03/11 17:02:41;;;;;;;5.13;1.00;;;8.80;97.90;;;;;;10431554;28;20164;-64
2023/03/11 17:07:41;;;;;;;3.97;1.10;;;8.80;97.90;;;;;;10433533;28;20033;-62
2023/03/11 17:12:42;;;;;;;2.95;0.88;;;8.80;98.10;;;;;;10435220;28;20516;-63
2023/03/11 17:17:45;;;;;;;2.00;0.80;;;8.70;98.30;;;;;;10437653;28;20083;-62
2023/03/11 17:22:45;;;;;;;1.75;0.75;;;8.70;98.20;;;;;;10432035;28;20107;-63
2023/03/11 17:27:46;;;;;;;2.28;0.70;;;8.70;98.40;;;;;;10430940;28;20038;-63
2023/03/11 17:32:47;;;;;;;1.52;0.90;;;8.70;98.60;;;;;;10431116;28;20165;-63
2023/03/11 17:37:48;;;;;;;2.85;0.75;;;8.70;98.70;;;;;;10433139;28;20030;-63
2023/03/11 17:42:48;;;;;;;3.83;1.38;;;8.70;98.80;;;;;;10434215;28;20090;-63
2023/03/11 17:47:49;;;;;;;1.92;1.08;;;8.60;98.90;;;;;;10435796;28;20408;-63
2023/03/11 17:52:50;;;;;;;1.45;0.77;;;8.60;99.10;;;;;;10429449;28;20037;-64
2023/03/11 17:57:51;;;;;;;3.10;1.58;;;8.60;99.10;;;;;;10433225;28;20033;-63
2023/03/11 18:02:52;;;;;;;2.38;1.20;;;8.60;99.10;;;;;;10427556;28;20032;-62
2023/03/11 18:07:52;;;;;;;4.57;1.45;;;8.60;99.10;;;;;;10424629;28;20374;-65
2023/03/11 18:12:53;;;;;;;2.83;1.42;;;8.50;99.00;;;;;;10427740;28;20606;-64
2023/03/11 18:17:55;;;;;;;2.90;1.40;;;8.50;99.00;;;;;;10425836;28;20120;-63
2023/03/11 18:22:56;;;;;;;4.13;1.65;;;8.50;99.10;;;;;;10427108;28;20024;-63
2023/03/11 18:27:57;;;;;;;3.50;1.70;;;8.40;99.00;;;;;;10434881;28;20032;-64
2023/03/11 18:32:57;;;;;;;3.42;1.10;;;8.40;99.00;;;;;;10429824;28;20021;-63
2023/03/11 18:37:58;;;;;;;5.53;1.52;;;8.30;99.10;;;;;;10424884;28;20045;-63
2023/03/11 18:42:58;;;;;;;3.17;1.90;;;8.30;99.10;;;;;;10432356;28;20032;-63
2023/03/11 18:47:59;;;;;;;4.90;1.60;;;8.30;99.10;;;;;;10433174;28;20538;-62
2023/03/11 18:53:00;;;;;;;2.53;1.23;;;8.20;99.10;;;;;;10430302;28;20431;-62
2023/03/11 18:58:01;;;;;;;4.30;1.50;;;8.20;99.20;;;;;;10410294;28;20033;-64
2023/03/11 19:03:01;;;;;;;3.47;1.58;;;8.20;99.20;;;;;;10429803;28;20033;-63
2023/03/11 19:08:02;;;;;;;2.03;1.42;;;8.10;99.20;;;;;;10428483;28;20064;-63
2023/03/11 19:13:03;;;;;;;3.28;1.80;;;8.10;99.20;;;;;;10429685;28;20155;-62
2023/03/11 19:18:03;;;;;;;4.00;1.60;;;8.10;99.20;;;;;;10433575;28;20475;-63
2023/03/11 19:23:05;;;;;;;4.40;1.48;;;8.00;99.20;;;;;;10428194;28;20029;-64
2023/03/11 19:28:05;;;;;;;3.00;1.70;;;8.00;99.30;;;;;;10435557;28;20025;-64
2023/03/11 19:33:06;;;;;;;3.13;1.45;;;8.00;99.30;;;;;;10433153;28;20298;-63
2023/03/11 19:38:07;;;;;;;4.25;2.00;;;8.70;99.50;;;;;;10440351;28;20024;-61
2023/03/11 19:43:07;;;;;;;4.55;1.63;;;7.90;99.30;;;;;;10434905;28;20021;-63
2023/03/11 19:48:08;;;;;;;2.90;1.33;;;7.90;99.30;;;;;;10436061;28;20029;-63
2023/03/11 19:53:08;;;;;;;4.28;1.52;;;7.90;99.60;;;;;;10439733;28;20039;-63
2023/03/11 19:58:09;;;;;;;3.40;1.42;;;7.80;99.30;;;;;;10436401;28;20017;-62
2023/03/11 20:03:11;;;;;;;4.22;1.90;;;7.80;99.30;;;;;;10437718;28;20100;-63
2023/03/11 20:08:17;;;;;;;7.07;1.55;;;7.80;99.30;;;;;;10436034;28;20496;-62
2023/03/11 20:13:20;;;;;;;3.72;2.30;;;7.70;99.20;;;;;;10429884;28;20056;-63
2023/03/11 20:18:20;;;;;;;3.60;1.70;;;7.70;99.20;;;;;;10428762;28;20453;-63
2023/03/11 20:23:21;;;;;;;3.42;1.67;;;7.70;99.20;;;;;;10438371;28;20032;-62
2023/03/11 20:28:21;;;;;;;3.67;1.70;;;7.70;99.20;;;;;;10431036;28;20041;-62
2023/03/11 20:33:22;;;;;;;3.45;1.70;;;7.60;99.20;;;;;;10431689;28;20112;-62
2023/03/11 20:38:23;;;;;;;4.38;1.73;;;7.60;99.20;;;;;;10435249;28;20021;-64
2023/03/11 20:43:23;;;;;;;3.88;1.80;;;7.60;99.20;;;;;;10431636;28;20056;-62
2023/03/11 20:48:24;;;;;;;4.75;1.85;;;7.50;99.10;;;;;;10428945;28;20403;-61
2023/03/11 20:53:25;;;;;;;4.45;1.80;;;7.50;99.10;;;;;;10434942;28;20083;-61
2023/03/11 20:58:25;;;;;;;3.70;1.55;;;7.50;99.10;;;;;;10431943;28;20500;-63
2023/03/11 21:03:26;;;;;;;5.93;2.00;;;7.50;99.10;;;;;;10434158;28;20475;-62
2023/03/11 21:08:27;;;;;;;5.85;1.92;;;7.40;99.10;;;;;;10434173;28;20037;-62
2023/03/11 21:13:29;;;;;;;7.28;2.30;;;7.40;99.10;;;;;;10419375;28;20059;-62
2023/03/11 21:18:29;;;;;;;5.60;2.00;;;7.40;99.10;;;;;;10424219;28;20033;-63
2023/03/11 21:23:30;;;;;;;3.55;2.10;;;7.30;99.10;;;;;;10425244;28;20404;-62
2023/03/11 21:28:33;;;;;;;5.22;1.92;;;7.30;99.30;;;;;;10435864;28;20086;-61
2023/03/11 21:33:33;;;;;;;3.22;1.92;;;7.30;99.00;;;;;;10429580;28;20052;-62
2023/03/11 21:38:34;;;;;;;3.67;2.20;;;7.30;99.00;;;;;;10422689;28;20113;-61
2023/03/11 21:43:36;;;;;;;2.55;1.50;;;7.30;99.00;;;;;;10423884;28;20033;-62
2023/03/11 21:48:37;;;;;;;4.03;2.33;;;7.20;99.00;;;;;;10425213;28;20140;-62
2023/03/11 21:53:37;;;;;;;5.47;2.13;;;7.20;99.00;;;;;;10427286;28;20124;-61
2023/03/11 21:58:38;;;;;;;4.78;2.08;;;7.20;99.00;;;;;;10425105;28;20049;-62
2023/03/11 22:03:39;;;;;;;3.95;2.00;;;7.10;98.90;;;;;;10423922;28;20028;-61
2023/03/11 22:08:41;;;;;;;3.60;2.28;;;7.10;98.90;;;;;;10426097;28;20036;-62
2023/03/11 22:13:43;;;;;;;3.30;2.13;;;7.10;98.90;;;;;;10428137;28;20120;-62
2023/03/11 22:18:44;;;;;;;5.63;2.45;;;7.10;98.90;;;;;;10420625;28;20028;-62
2023/03/11 22:23:45;;;;;;;4.72;2.35;;;7.00;98.90;;;;;;10428839;28;20079;-62
2023/03/11 22:28:45;;;;;;;4.78;2.22;;;7.00;98.90;;;;;;10427095;28;20524;-62
2023/03/11 22:33:46;;;;;;;5.20;2.88;;;7.00;98.90;;;;;;10419351;28;20021;-61
2023/03/11 22:38:47;;;;;;;4.82;2.42;;;6.90;98.90;;;;;;10420960;28;20490;-62
2023/03/11 22:43:47;;;;;;;3.70;2.30;;;6.90;98.90;;;;;;10425140;28;20056;-62
2023/03/11 22:48:48;;;;;;;5.15;2.47;;;6.90;98.90;;;;;;10422084;28;20024;-62
2023/03/11 22:53:49;;;;;;;4.32;2.38;;;6.90;98.90;;;;;;10429129;28;20095;-63
2023/03/11 22:58:49;;;;;;;5.63;2.55;;;6.80;98.90;;;;;;10426786;28;20029;-62
2023/03/11 23:03:52;;;;;;;5.20;2.25;;;6.80;98.90;;;;;;10432726;28;20021;-62
2023/03/11 23:08:52;;;;;;;5.38;2.30;;;6.80;98.90;;;;;;10434057;28;20029;-62
2023/03/11 23:13:55;;;;;;;4.43;2.08;;;6.80;98.90;;;;;;10426856;28;20025;-61
2023/03/11 23:18:56;;;;;;;6.53;2.20;;;6.70;98.90;;;;;;10436522;28;20396;-62
2023/03/11 23:23:59;;;;;;;4.47;2.05;;;6.70;98.90;;;;;;10431968;28;20035;-61
2023/03/11 23:29:02;;;;;;;4.22;2.33;;;6.70;98.90;;;;;;10428654;28;20056;-61
2023/03/11 23:34:05;;;;;;;3.42;2.25;;;6.70;98.90;;;;;;10426446;28;20096;-61
2023/03/11 23:39:05;;;;;;;5.30;2.33;;;6.70;98.90;;;;;;10432739;28;20092;-60
2023/03/11 23:44:06;;;;;;;3.78;2.53;;;6.60;98.90;;;;;;10436363;28;20021;-61
2023/03/11 23:49:07;;;;;;;3.50;2.15;;;6.60;98.90;;;;;;10433876;28;20047;-61
2023/03/11 23:54:07;;;;;;;5.00;2.20;;;6.60;98.90;;;;;;10433824;28;20532;-61
2023/03/11 23:59:08;;;;;;;4.47;2.17;;;6.50;98.90;;;;;;10433255;28;20485;-62
